Mercer, Tennessee
Current Conditions -  °F | °C
As of 7:53 AM on Thursday 29 Jan 2015 (Local Time) from KMKL Reporting Station
Clear Clear  
Wind Chill: 53°   Ceiling: Unl
Heat Index: 53°   Visibility: 10mi
Dew Point: 39°   Wind: 14mph
Humidity: 59%   Direction: 200°SSW
Pressure: 30.03"   Gusts: NA
Location:  35.48°N, 89.04°W
Report Text: KMKL 291353Z 20012KT 10SM CLR 12/04 A3003 RMK AO2 SLP168 T01170039
Loading
Personal Weather Stations






























Interactive Weather Map New forecast layout! Learn more

10-Day Weather Forecast

Advertisements
Track Severe Weather on mobile